sensor_id;sensor_type;location;lat;lon;timestamp;pressure;altitude;pressure_sealevel;temperature;humidity
45327;BME280;31062;49.678;24.560;2024-01-15T00:01:45;96643.75;;;-0.13;70.19
45327;BME280;31062;49.678;24.560;2024-01-15T00:04:51;96633.56;;;-0.12;69.76
45327;BME280;31062;49.678;24.560;2024-01-15T00:07:57;96639.03;;;-0.12;70.17
45327;BME280;31062;49.678;24.560;2024-01-15T00:11:02;96633.56;;;-0.12;70.58
45327;BME280;31062;49.678;24.560;2024-01-15T00:14:09;96637.56;;;-0.13;69.72
45327;BME280;31062;49.678;24.560;2024-01-15T00:17:15;96629.94;;;-0.15;69.85
45327;BME280;31062;49.678;24.560;2024-01-15T00:20:21;96629.41;;;-0.13;70.35
45327;BME280;31062;49.678;24.560;2024-01-15T00:23:27;96625.22;;;-0.14;70.93
45327;BME280;31062;49.678;24.560;2024-01-15T00:26:32;96628.47;;;-0.16;70.55
45327;BME280;31062;49.678;24.560;2024-01-15T00:29:38;96611.41;;;-0.16;69.94
45327;BME280;31062;49.678;24.560;2024-01-15T00:32:44;96607.03;;;-0.19;70.65
45327;BME280;31062;49.678;24.560;2024-01-15T00:35:50;96608.13;;;-0.22;70.85
45327;BME280;31062;49.678;24.560;2024-01-15T00:38:56;96600.13;;;-0.20;71.04
45327;BME280;31062;49.678;24.560;2024-01-15T00:42:02;96593.25;;;-0.21;71.04
45327;BME280;31062;49.678;24.560;2024-01-15T00:45:09;96576.53;;;-0.33;70.05
45327;BME280;31062;49.678;24.560;2024-01-15T00:48:15;96590.31;;;-0.23;70.82
45327;BME280;31062;49.678;24.560;2024-01-15T00:51:22;96588.16;;;-0.25;70.32
45327;BME280;31062;49.678;24.560;2024-01-15T00:54:28;96583.59;;;-0.22;70.62
45327;BME280;31062;49.678;24.560;2024-01-15T00:57:34;96577.63;;;-0.21;70.52
45327;BME280;31062;49.678;24.560;2024-01-15T01:00:40;96577.09;;;-0.19;70.64
45327;BME280;31062;49.678;24.560;2024-01-15T01:03:46;96579.81;;;-0.19;70.03
45327;BME280;31062;49.678;24.560;2024-01-15T01:06:31;96582.38;;;-0.14;70.14
45327;BME280;31062;49.678;24.560;2024-01-15T01:09:20;96575.09;;;-0.11;70.11
45327;BME280;31062;49.678;24.560;2024-01-15T01:12:06;96552.94;;;-0.15;69.82
45327;BME280;31062;49.678;24.560;2024-01-15T01:14:52;96562.38;;;-0.09;69.35
45327;BME280;31062;49.678;24.560;2024-01-15T01:17:38;96557.66;;;-0.08;69.35
45327;BME280;31062;49.678;24.560;2024-01-15T01:20:24;96552.22;;;-0.08;70.23
45327;BME280;31062;49.678;24.560;2024-01-15T01:23:09;96551.84;;;-0.05;69.95
45327;BME280;31062;49.678;24.560;2024-01-15T01:25:55;96558.03;;;-0.04;69.78
45327;BME280;31062;49.678;24.560;2024-01-15T01:28:41;96558.03;;;-0.04;68.98
45327;BME280;31062;49.678;24.560;2024-01-15T01:31:27;96556.94;;;-0.01;69.51
45327;BME280;31062;49.678;24.560;2024-01-15T01:34:14;96553.31;;;0.04;69.23
45327;BME280;31062;49.678;24.560;2024-01-15T01:37:01;96548.59;;;0.05;68.86
45327;BME280;31062;49.678;24.560;2024-01-15T01:39:47;96537.69;;;0.05;68.96
45327;BME280;31062;49.678;24.560;2024-01-15T01:42:33;96530.41;;;0.07;69.24
45327;BME280;31062;49.678;24.560;2024-01-15T01:45:18;96532.97;;;0.05;68.31
45327;BME280;31062;49.678;24.560;2024-01-15T01:48:04;96527.69;;;0.07;68.97
45327;BME280;31062;49.678;24.560;2024-01-15T01:50:51;96524.22;;;0.07;68.63
45327;BME280;31062;49.678;24.560;2024-01-15T01:53:37;96526.41;;;0.08;68.83
45327;BME280;31062;49.678;24.560;2024-01-15T01:56:23;96497.75;;;-0.08;68.58
45327;BME280;31062;49.678;24.560;2024-01-15T01:59:11;96530.22;;;0.13;68.70
45327;BME280;31062;49.678;24.560;2024-01-15T02:01:57;96529.69;;;0.14;68.13
45327;BME280;31062;49.678;24.560;2024-01-15T02:04:44;96518.25;;;0.16;68.46
45327;BME280;31062;49.678;24.560;2024-01-15T02:07:30;96521.69;;;0.16;67.59
45327;BME280;31062;49.678;24.560;2024-01-15T02:10:17;96518.44;;;0.18;67.64
45327;BME280;31062;49.678;24.560;2024-01-15T02:13:04;96517.72;;;0.17;67.50
45327;BME280;31062;49.678;24.560;2024-01-15T02:15:50;96513.69;;;0.18;67.59
45327;BME280;31062;49.678;24.560;2024-01-15T02:18:43;96491.53;;;0.14;67.52
45327;BME280;31062;49.678;24.560;2024-01-15T02:21:31;96500.59;;;0.24;67.60
45327;BME280;31062;49.678;24.560;2024-01-15T02:24:18;96493.16;;;0.25;67.37
45327;BME280;31062;49.678;24.560;2024-01-15T02:27:04;96495.16;;;0.24;66.77
45327;BME280;31062;49.678;24.560;2024-01-15T02:29:52;96477.38;;;0.23;67.25
45327;BME280;31062;49.678;24.560;2024-01-15T02:32:39;96469.38;;;0.18;67.16
45327;BME280;31062;49.678;24.560;2024-01-15T02:35:24;96484.09;;;0.22;66.43
45327;BME280;31062;49.678;24.560;2024-01-15T02:38:12;96477.38;;;0.23;66.74
45327;BME280;31062;49.678;24.560;2024-01-15T02:40:58;96484.97;;;0.25;66.18
45327;BME280;31062;49.678;24.560;2024-01-15T02:43:44;96486.44;;;0.26;66.39
45327;BME280;31062;49.678;24.560;2024-01-15T02:46:33;96481.16;;;0.28;66.42
45327;BME280;31062;49.678;24.560;2024-01-15T02:49:19;96475.88;;;0.30;65.51
45327;BME280;31062;49.678;24.560;2024-01-15T02:52:05;96464.44;;;0.31;64.96
45327;BME280;31062;49.678;24.560;2024-01-15T02:54:51;96467.16;;;0.31;65.39
45327;BME280;31062;49.678;24.560;2024-01-15T02:57:37;96471.34;;;0.32;65.45
45327;BME280;31062;49.678;24.560;2024-01-15T03:00:23;96475.50;;;0.33;64.86
45327;BME280;31062;49.678;24.560;2024-01-15T03:03:10;96473.13;;;0.37;65.24
45327;BME280;31062;49.678;24.560;2024-01-15T03:05:56;96472.06;;;0.40;64.71
45327;BME280;31062;49.678;24.560;2024-01-15T03:08:42;96462.06;;;0.35;64.25
45327;BME280;31062;49.678;24.560;2024-01-15T03:11:28;96474.78;;;0.40;64.70
45327;BME280;31062;49.678;24.560;2024-01-15T03:14:14;96465.31;;;0.42;63.98
45327;BME280;31062;49.678;24.560;2024-01-15T03:17:00;96467.88;;;0.39;64.00
45327;BME280;31062;49.678;24.560;2024-01-15T03:19:47;96476.22;;;0.42;64.54
45327;BME280;31062;49.678;24.560;2024-01-15T03:22:36;96477.66;;;0.43;64.22
45327;BME280;31062;49.678;24.560;2024-01-15T03:25:22;96467.13;;;0.39;64.87
45327;BME280;31062;49.678;24.560;2024-01-15T03:28:10;96466.75;;;0.43;64.66
45327;BME280;31062;49.678;24.560;2024-01-15T03:30:56;96465.47;;;0.44;64.70
45327;BME280;31062;49.678;24.560;2024-01-15T03:33:41;96457.31;;;0.36;64.54
45327;BME280;31062;49.678;24.560;2024-01-15T03:36:31;96454.44;;;0.42;64.42
45327;BME280;31062;49.678;24.560;2024-01-15T03:39:18;96457.31;;;0.44;64.87
45327;BME280;31062;49.678;24.560;2024-01-15T03:42:04;96472.56;;;0.47;65.33
45327;BME280;31062;49.678;24.560;2024-01-15T03:44:51;96451.84;;;0.44;64.71
45327;BME280;31062;49.678;24.560;2024-01-15T03:47:37;96444.59;;;0.38;64.30
45327;BME280;31062;49.678;24.560;2024-01-15T03:50:23;96443.88;;;0.46;65.19
45327;BME280;31062;49.678;24.560;2024-01-15T03:53:09;96444.19;;;0.50;64.73
45327;BME280;31062;49.678;24.560;2024-01-15T03:55:56;96434.03;;;0.43;64.69
45327;BME280;31062;49.678;24.560;2024-01-15T03:58:42;96448.19;;;0.49;65.47
45327;BME280;31062;49.678;24.560;2024-01-15T04:01:27;96438.75;;;0.50;64.55
45327;BME280;31062;49.678;24.560;2024-01-15T04:04:13;96440.03;;;0.49;65.71
45327;BME280;31062;49.678;24.560;2024-01-15T04:07:01;96376.38;;;0.06;64.63
45327;BME280;31062;49.678;24.560;2024-01-15T04:09:47;96438.75;;;0.50;64.95
45327;BME280;31062;49.678;24.560;2024-01-15T04:12:33;96428.03;;;0.52;65.58
45327;BME280;31062;49.678;24.560;2024-01-15T04:15:18;96433.47;;;0.52;64.96
45327;BME280;31062;49.678;24.560;2024-01-15T04:18:04;96416.94;;;0.50;65.73
45327;BME280;31062;49.678;24.560;2024-01-15T04:20:50;96419.47;;;0.55;64.95
45327;BME280;31062;49.678;24.560;2024-01-15T04:23:39;96423.09;;;0.58;65.71
45327;BME280;31062;49.678;24.560;2024-01-15T04:26:24;96417.09;;;0.59;65.39
45327;BME280;31062;49.678;24.560;2024-01-15T04:29:11;96426.69;;;0.60;65.21
45327;BME280;31062;49.678;24.560;2024-01-15T04:31:58;96417.63;;;0.58;64.86
45327;BME280;31062;49.678;24.560;2024-01-15T04:34:46;96419.44;;;0.63;65.18
45327;BME280;31062;49.678;24.560;2024-01-15T04:37:32;96408.53;;;0.63;64.49
45327;BME280;31062;49.678;24.560;2024-01-15T04:40:18;96419.97;;;0.61;64.30
45327;BME280;31062;49.678;24.560;2024-01-15T04:43:03;96407.06;;;0.62;64.92
45327;BME280;31062;49.678;24.560;2024-01-15T04:45:50;96389.31;;;0.53;64.89
45327;BME280;31062;49.678;24.560;2024-01-15T04:48:36;96401.06;;;0.63;64.46
45327;BME280;31062;49.678;24.560;2024-01-15T04:51:22;96403.25;;;0.65;64.59
45327;BME280;31062;49.678;24.560;2024-01-15T04:54:08;96397.63;;;0.63;64.59
45327;BME280;31062;49.678;24.560;2024-01-15T04:56:54;96400.53;;;0.65;64.59
45327;BME280;31062;49.678;24.560;2024-01-15T04:59:40;96397.63;;;0.63;64.91
45327;BME280;31062;49.678;24.560;2024-01-15T05:02:25;96397.78;;;0.65;64.78
45327;BME280;31062;49.678;24.560;2024-01-15T05:05:12;96398.34;;;0.63;64.20
45327;BME280;31062;49.678;24.560;2024-01-15T05:08:00;96386.72;;;0.63;64.29
45327;BME280;31062;49.678;24.560;2024-01-15T05:10:45;96381.25;;;0.63;64.94
45327;BME280;31062;49.678;24.560;2024-01-15T05:13:32;96381.25;;;0.63;64.16
45327;BME280;31062;49.678;24.560;2024-01-15T05:16:17;96372.34;;;0.62;64.27
45327;BME280;31062;49.678;24.560;2024-01-15T05:19:07;96365.66;;;0.56;64.53
45327;BME280;31062;49.678;24.560;2024-01-15T05:21:53;96350.84;;;0.42;64.50
45327;BME280;31062;49.678;24.560;2024-01-15T05:24:39;96371.63;;;0.62;64.81
45327;BME280;31062;49.678;24.560;2024-01-15T05:27:27;96364.91;;;0.63;65.39
45327;BME280;31062;49.678;24.560;2024-01-15T05:30:13;96365.63;;;0.63;65.20
45327;BME280;31062;49.678;24.560;2024-01-15T05:32:59;96364.91;;;0.63;64.95
45327;BME280;31062;49.678;24.560;2024-01-15T05:35:47;96241.94;;;-0.21;64.98
45327;BME280;31062;49.678;24.560;2024-01-15T05:38:33;96350.00;;;0.56;65.20
45327;BME280;31062;49.678;24.560;2024-01-15T05:41:19;96352.72;;;0.64;65.04
45327;BME280;31062;49.678;24.560;2024-01-15T05:44:05;96361.22;;;0.68;64.69
45327;BME280;31062;49.678;24.560;2024-01-15T05:46:50;96351.59;;;0.67;64.76
45327;BME280;31062;49.678;24.560;2024-01-15T05:49:37;96345.19;;;0.72;64.56
45327;BME280;31062;49.678;24.560;2024-01-15T05:52:26;96250.22;;;-0.04;64.78
45327;BME280;31062;49.678;24.560;2024-01-15T05:55:13;96351.78;;;0.69;64.86
45327;BME280;31062;49.678;24.560;2024-01-15T05:57:58;96351.44;;;0.65;64.35
45327;BME280;31062;49.678;24.560;2024-01-15T06:00:48;96342.38;;;0.55;64.55
45327;BME280;31062;49.678;24.560;2024-01-15T06:03:38;96349.63;;;0.60;64.35
45327;BME280;31062;49.678;24.560;2024-01-15T06:06:24;96346.91;;;0.60;64.33
45327;BME280;31062;49.678;24.560;2024-01-15T06:09:10;96355.06;;;0.60;64.87
45327;BME280;31062;49.678;24.560;2024-01-15T06:11:56;96336.16;;;0.62;64.62
45327;BME280;31062;49.678;24.560;2024-01-15T06:14:42;96330.72;;;0.62;64.66
45327;BME280;31062;49.678;24.560;2024-01-15T06:17:28;96325.25;;;0.62;64.42
45327;BME280;31062;49.678;24.560;2024-01-15T06:20:14;96330.72;;;0.62;63.99
45327;BME280;31062;49.678;24.560;2024-01-15T06:22:59;96330.72;;;0.62;64.45
45327;BME280;31062;49.678;24.560;2024-01-15T06:25:46;96327.81;;;0.60;64.48
45327;BME280;31062;49.678;24.560;2024-01-15T06:28:31;96325.47;;;0.56;64.48
45327;BME280;31062;49.678;24.560;2024-01-15T06:31:17;96328.22;;;0.56;64.48
45327;BME280;31062;49.678;24.560;2024-01-15T06:34:04;96264.09;;;0.15;64.42
45327;BME280;31062;49.678;24.560;2024-01-15T06:36:50;96327.13;;;0.59;64.95
45327;BME280;31062;49.678;24.560;2024-01-15T06:39:55;96335.44;;;0.61;64.22
45327;BME280;31062;49.678;24.560;2024-01-15T06:43:01;96336.16;;;0.62;63.81
45327;BME280;31062;49.678;24.560;2024-01-15T06:46:07;96332.16;;;0.63;63.86
45327;BME280;31062;49.678;24.560;2024-01-15T06:49:12;96337.63;;;0.63;63.86
45327;BME280;31062;49.678;24.560;2024-01-15T06:52:18;96337.81;;;0.65;64.97
45327;BME280;31062;49.678;24.560;2024-01-15T06:55:24;96316.56;;;0.56;64.33
45327;BME280;31062;49.678;24.560;2024-01-15T06:58:32;96329.94;;;0.69;64.61
45327;BME280;31062;49.678;24.560;2024-01-15T07:01:38;96324.50;;;0.69;63.85
45327;BME280;31062;49.678;24.560;2024-01-15T07:04:43;96324.31;;;0.67;64.42
45327;BME280;31062;49.678;24.560;2024-01-15T07:07:50;96323.56;;;0.74;64.44
45327;BME280;31062;49.678;24.560;2024-01-15T07:10:55;96327.41;;;0.71;63.86
45327;BME280;31062;49.678;24.560;2024-01-15T07:14:01;96308.81;;;0.77;63.66
45327;BME280;31062;49.678;24.560;2024-01-15T07:17:07;96301.91;;;0.76;64.12
45327;BME280;31062;49.678;24.560;2024-01-15T07:20:12;96301.78;;;0.91;63.77
45327;BME280;31062;49.678;24.560;2024-01-15T07:23:18;96285.97;;;1.14;63.01
45327;BME280;31062;49.678;24.560;2024-01-15T07:26:24;96287.78;;;1.37;62.76
45327;BME280;31062;49.678;24.560;2024-01-15T07:29:30;96297.19;;;1.60;61.71
45327;BME280;31062;49.678;24.560;2024-01-15T07:32:36;96281.34;;;1.76;61.49
45327;BME280;31062;49.678;24.560;2024-01-15T07:35:43;96293.56;;;1.92;60.97
45327;BME280;31062;49.678;24.560;2024-01-15T07:38:49;96292.09;;;1.91;60.18
45327;BME280;31062;49.678;24.560;2024-01-15T07:41:54;96298.22;;;1.82;59.94
45327;BME280;31062;49.678;24.560;2024-01-15T07:45:00;96283.28;;;1.66;60.36
45327;BME280;31062;49.678;24.560;2024-01-15T07:48:06;96299.09;;;1.50;60.90
45327;BME280;31062;49.678;24.560;2024-01-15T07:51:12;96283.91;;;1.40;60.89
45327;BME280;31062;49.678;24.560;2024-01-15T07:54:18;96278.53;;;1.32;60.69
45327;BME280;31062;49.678;24.560;2024-01-15T07:57:23;96286.31;;;1.18;60.76
45327;BME280;31062;49.678;24.560;2024-01-15T08:00:10;96285.63;;;1.10;61.62
45327;BME280;31062;49.678;24.560;2024-01-15T08:02:56;96286.75;;;1.07;62.07
45327;BME280;31062;49.678;24.560;2024-01-15T08:05:42;96283.47;;;1.09;62.24
45327;BME280;31062;49.678;24.560;2024-01-15T08:08:28;96277.28;;;1.08;62.15
45327;BME280;31062;49.678;24.560;2024-01-15T08:11:14;96276.16;;;1.11;62.15
45327;BME280;31062;49.678;24.560;2024-01-15T08:14:00;96290.13;;;1.15;62.38
45327;BME280;31062;49.678;24.560;2024-01-15T08:16:47;96267.34;;;1.20;62.66
45327;BME280;31062;49.678;24.560;2024-01-15T08:19:32;96268.00;;;1.29;62.03
45327;BME280;31062;49.678;24.560;2024-01-15T08:22:18;96279.09;;;1.31;61.69
45327;BME280;31062;49.678;24.560;2024-01-15T08:25:04;96262.88;;;1.33;62.70
45327;BME280;31062;49.678;24.560;2024-01-15T08:27:51;96273.31;;;1.44;61.90
45327;BME280;31062;49.678;24.560;2024-01-15T08:30:37;96261.94;;;1.55;62.22
45327;BME280;31062;49.678;24.560;2024-01-15T08:33:23;96262.47;;;1.71;61.63
45327;BME280;31062;49.678;24.560;2024-01-15T08:36:09;96253.06;;;1.81;61.66
45327;BME280;31062;49.678;24.560;2024-01-15T08:38:55;96256.09;;;2.02;61.01
45327;BME280;31062;49.678;24.560;2024-01-15T08:42:01;96256.19;;;2.22;60.55
45327;BME280;31062;49.678;24.560;2024-01-15T08:45:07;96254.09;;;2.30;60.44
45327;BME280;31062;49.678;24.560;2024-01-15T08:48:16;96256.81;;;2.30;60.37
45327;BME280;31062;49.678;24.560;2024-01-15T08:51:21;96257.59;;;2.40;59.68
45327;BME280;31062;49.678;24.560;2024-01-15T08:54:27;96264.22;;;2.37;59.58
45327;BME280;31062;49.678;24.560;2024-01-15T08:57:33;96264.00;;;2.25;59.12
45327;BME280;31062;49.678;24.560;2024-01-15T09:00:39;96261.63;;;2.12;59.55
45327;BME280;31062;49.678;24.560;2024-01-15T09:03:45;96259.22;;;1.99;59.66
45327;BME280;31062;49.678;24.560;2024-01-15T09:06:51;96255.00;;;1.88;60.18
45327;BME280;31062;49.678;24.560;2024-01-15T09:09:57;96256.53;;;1.82;61.13
45327;BME280;31062;49.678;24.560;2024-01-15T09:13:03;96249.28;;;1.77;60.81
45327;BME280;31062;49.678;24.560;2024-01-15T09:16:09;96247.13;;;1.75;61.27
45327;BME280;31062;49.678;24.560;2024-01-15T09:18:55;96241.66;;;1.75;61.05
45327;BME280;31062;49.678;24.560;2024-01-15T09:21:43;96238.53;;;1.79;61.34
45327;BME280;31062;49.678;24.560;2024-01-15T09:24:29;96236.84;;;1.83;61.96
45327;BME280;31062;49.678;24.560;2024-01-15T09:27:15;96220.44;;;1.83;61.29
45327;BME280;31062;49.678;24.560;2024-01-15T09:30:01;96204.34;;;1.87;61.59
45327;BME280;31062;49.678;24.560;2024-01-15T09:32:47;96216.53;;;2.03;61.58
45327;BME280;31062;49.678;24.560;2024-01-15T09:35:52;96210.53;;;2.15;61.67
45327;BME280;31062;49.678;24.560;2024-01-15T09:38:58;96210.34;;;2.30;60.91
45327;BME280;31062;49.678;24.560;2024-01-15T09:42:05;96200.84;;;2.31;61.20
45327;BME280;31062;49.678;24.560;2024-01-15T09:45:11;96208.25;;;2.47;61.19
45327;BME280;31062;49.678;24.560;2024-01-15T09:48:17;96211.63;;;2.56;60.65
45327;BME280;31062;49.678;24.560;2024-01-15T09:51:24;96202.97;;;2.59;60.31
45327;BME280;31062;49.678;24.560;2024-01-15T09:54:10;96205.75;;;2.69;60.61
45327;BME280;31062;49.678;24.560;2024-01-15T09:57:00;96195.38;;;2.67;60.26
45327;BME280;31062;49.678;24.560;2024-01-15T09:59:47;96207.06;;;2.77;60.21
45327;BME280;31062;49.678;24.560;2024-01-15T10:02:34;96203.91;;;2.81;60.08
45327;BME280;31062;49.678;24.560;2024-01-15T10:05:20;96201.34;;;2.93;59.76
45327;BME280;31062;49.678;24.560;2024-01-15T10:08:07;96187.09;;;2.94;59.60
45327;BME280;31062;49.678;24.560;2024-01-15T10:10:52;96182.09;;;3.10;59.49
45327;BME280;31062;49.678;24.560;2024-01-15T10:13:39;96129.16;;;2.78;58.75
45327;BME280;31062;49.678;24.560;2024-01-15T10:16:27;96176.47;;;3.27;58.58
45327;BME280;31062;49.678;24.560;2024-01-15T10:19:13;96174.31;;;3.35;58.39
45327;BME280;31062;49.678;24.560;2024-01-15T10:21:59;96157.44;;;3.39;57.82
45327;BME280;31062;49.678;24.560;2024-01-15T10:24:45;96151.25;;;3.38;57.62
45327;BME280;31062;49.678;24.560;2024-01-15T10:27:33;96156.72;;;3.38;58.09
45327;BME280;31062;49.678;24.560;2024-01-15T10:30:19;96091.13;;;2.92;57.84
45327;BME280;31062;49.678;24.560;2024-01-15T10:33:06;96159.19;;;3.44;57.86
45327;BME280;31062;49.678;24.560;2024-01-15T10:35:58;96158.72;;;3.47;58.45
45327;BME280;31062;49.678;24.560;2024-01-15T10:38:45;96157.72;;;3.52;58.15
45327;BME280;31062;49.678;24.560;2024-01-15T10:41:31;96148.94;;;3.54;57.91
45327;BME280;31062;49.678;24.560;2024-01-15T10:44:17;96159.16;;;3.63;57.70
45327;BME280;31062;49.678;24.560;2024-01-15T10:47:05;96156.56;;;3.75;58.04
45327;BME280;31062;49.678;24.560;2024-01-15T10:49:52;96163.31;;;3.83;57.97
45327;BME280;31062;49.678;24.560;2024-01-15T10:52:40;96155.91;;;3.95;57.90
45327;BME280;31062;49.678;24.560;2024-01-15T10:55:46;96163.41;;;4.04;57.38
45327;BME280;31062;49.678;24.560;2024-01-15T10:58:52;96153.16;;;4.05;56.89
45327;BME280;31062;49.678;24.560;2024-01-15T11:01:44;96156.03;;;4.07;57.39
45327;BME280;31062;49.678;24.560;2024-01-15T11:04:32;96153.16;;;4.05;57.42
45327;BME280;31062;49.678;24.560;2024-01-15T11:07:21;96152.88;;;4.01;57.16
45327;BME280;31062;49.678;24.560;2024-01-15T11:10:38;96144.22;;;3.95;57.50
45327;BME280;31062;49.678;24.560;2024-01-15T11:16:14;96138.22;;;3.87;58.49
45327;BME280;31062;49.678;24.560;2024-01-15T11:19:05;96143.41;;;3.83;57.59
45327;BME280;31062;49.678;24.560;2024-01-15T11:21:52;96154.53;;;3.75;57.77
45327;BME280;31062;49.678;24.560;2024-01-15T11:24:40;96139.69;;;3.68;57.60
45327;BME280;31062;49.678;24.560;2024-01-15T11:27:41;96136.06;;;3.66;57.87
45327;BME280;31062;49.678;24.560;2024-01-15T11:30:27;96021.28;;;2.81;58.05
45327;BME280;31062;49.678;24.560;2024-01-15T11:33:32;96137.38;;;3.65;57.06
45327;BME280;31062;49.678;24.560;2024-01-15T11:36:20;96133.63;;;3.60;57.53
45327;BME280;31062;49.678;24.560;2024-01-15T11:42:17;96019.44;;;2.84;57.81
45327;BME280;31062;49.678;24.560;2024-01-15T11:45:05;96126.44;;;3.55;57.90
45327;BME280;31062;49.678;24.560;2024-01-15T11:50:44;96126.00;;;3.59;57.27
45327;BME280;31062;49.678;24.560;2024-01-15T11:53:45;96121.22;;;3.59;57.41
45327;BME280;31062;49.678;24.560;2024-01-15T11:56:53;96129.88;;;3.65;57.48
45327;BME280;31062;49.678;24.560;2024-01-15T11:59:43;96131.31;;;3.66;57.43
45327;BME280;31062;49.678;24.560;2024-01-15T12:02:58;96097.91;;;3.39;57.16
45327;BME280;31062;49.678;24.560;2024-01-15T12:06:07;96052.09;;;3.11;56.65
45327;BME280;31062;49.678;24.560;2024-01-15T12:09:08;96134.09;;;3.57;57.23
45327;BME280;31062;49.678;24.560;2024-01-15T12:12:27;96125.00;;;3.54;57.51
45327;BME280;31062;49.678;24.560;2024-01-15T12:15:15;96123.53;;;3.53;56.95
45327;BME280;31062;49.678;24.560;2024-01-15T12:18:20;96132.78;;;3.48;56.37
45327;BME280;31062;49.678;24.560;2024-01-15T12:21:27;96141.00;;;3.48;55.42
45327;BME280;31062;49.678;24.560;2024-01-15T12:24:33;96138.72;;;3.45;55.01
45327;BME280;31062;49.678;24.560;2024-01-15T12:27:39;96138.00;;;3.44;54.46
45327;BME280;31062;49.678;24.560;2024-01-15T12:30:46;96142.75;;;3.44;54.23
45327;BME280;31062;49.678;24.560;2024-01-15T12:33:52;96142.59;;;3.42;54.29
45327;BME280;31062;49.678;24.560;2024-01-15T12:36:58;96144.47;;;3.39;54.48
45327;BME280;31062;49.678;24.560;2024-01-15T12:40:04;96152.97;;;3.43;54.24
45327;BME280;31062;49.678;24.560;2024-01-15T12:43:11;96149.22;;;3.48;54.28
45327;BME280;31062;49.678;24.560;2024-01-15T12:46:16;96160.34;;;3.50;54.15
45327;BME280;31062;49.678;24.560;2024-01-15T12:49:23;96154.69;;;3.48;54.25
45327;BME280;31062;49.678;24.560;2024-01-15T12:52:29;96145.47;;;3.34;54.37
45327;BME280;31062;49.678;24.560;2024-01-15T12:55:35;96154.41;;;3.44;54.57
45327;BME280;31062;49.678;24.560;2024-01-15T12:58:41;96155.88;;;3.45;54.17
45327;BME280;31062;49.678;24.560;2024-01-15T13:01:47;96155.88;;;3.45;54.26
45327;BME280;31062;49.678;24.560;2024-01-15T13:04:53;96155.88;;;3.45;54.22
45327;BME280;31062;49.678;24.560;2024-01-15T13:08:01;96155.44;;;3.39;53.91
45327;BME280;31062;49.678;24.560;2024-01-15T13:11:06;96161.34;;;3.45;54.08
45327;BME280;31062;49.678;24.560;2024-01-15T13:14:13;96169.81;;;3.40;54.26
45327;BME280;31062;49.678;24.560;2024-01-15T13:17:19;96166.25;;;3.37;54.79
45327;BME280;31062;49.678;24.560;2024-01-15T13:20:25;96164.78;;;3.36;54.65
45327;BME280;31062;49.678;24.560;2024-01-15T13:23:30;96163.34;;;3.35;55.07
45327;BME280;31062;49.678;24.560;2024-01-15T13:26:36;96169.28;;;3.32;54.63
45327;BME280;31062;49.678;24.560;2024-01-15T13:29:42;96168.53;;;3.31;54.54
45327;BME280;31062;49.678;24.560;2024-01-15T13:32:48;96153.56;;;3.32;54.54
45327;BME280;31062;49.678;24.560;2024-01-15T13:35:54;96161.63;;;3.30;54.27
45327;BME280;31062;49.678;24.560;2024-01-15T13:38:59;96155.41;;;3.29;54.44
45327;BME280;31062;49.678;24.560;2024-01-15T13:42:05;96162.78;;;3.27;54.40
45327;BME280;31062;49.678;24.560;2024-01-15T13:44:51;96144.31;;;3.18;54.49
45327;BME280;31062;49.678;24.560;2024-01-15T13:47:37;96144.19;;;3.25;54.66
45327;BME280;31062;49.678;24.560;2024-01-15T13:50:24;96143.31;;;3.23;54.08
45327;BME280;31062;49.678;24.560;2024-01-15T13:53:10;96155.44;;;3.20;54.29
45327;BME280;31062;49.678;24.560;2024-01-15T13:55:56;96165.94;;;3.14;54.25
45327;BME280;31062;49.678;24.560;2024-01-15T13:58:42;96147.78;;;3.09;54.26
45327;BME280;31062;49.678;24.560;2024-01-15T14:01:28;96152.97;;;3.05;54.23
45327;BME280;31062;49.678;24.560;2024-01-15T14:04:15;96148.63;;;3.02;54.56
45327;BME280;31062;49.678;24.560;2024-01-15T14:07:01;96147.91;;;3.01;54.69
45327;BME280;31062;49.678;24.560;2024-01-15T14:10:07;96164.34;;;3.01;54.54
45327;BME280;31062;49.678;24.560;2024-01-15T14:13:12;96155.56;;;3.03;54.34
45327;BME280;31062;49.678;24.560;2024-01-15T14:16:18;96159.59;;;3.02;54.05
45327;BME280;31062;49.678;24.560;2024-01-15T14:19:24;96167.66;;;3.00;54.21
45327;BME280;31062;49.678;24.560;2024-01-15T14:22:49;96169.09;;;3.01;54.22
45327;BME280;31062;49.678;24.560;2024-01-15T14:25:56;96171.69;;;2.99;54.42
45327;BME280;31062;49.678;24.560;2024-01-15T14:29:02;96177.75;;;2.97;54.40
45327;BME280;31062;49.678;24.560;2024-01-15T14:32:08;96179.59;;;2.95;54.81
45327;BME280;31062;49.678;24.560;2024-01-15T14:35:13;96178.16;;;2.94;54.74
45327;BME280;31062;49.678;24.560;2024-01-15T14:38:19;96170.22;;;2.88;55.04
45327;BME280;31062;49.678;24.560;2024-01-15T14:41:25;96173.09;;;2.80;55.03
45327;BME280;31062;49.678;24.560;2024-01-15T14:44:31;96176.81;;;2.75;54.94
45327;BME280;31062;49.678;24.560;2024-01-15T14:47:40;96161.38;;;2.61;55.02
45327;BME280;31062;49.678;24.560;2024-01-15T14:50:46;96166.69;;;2.59;55.29
45327;BME280;31062;49.678;24.560;2024-01-15T14:53:52;96177.19;;;2.53;55.34
45327;BME280;31062;49.678;24.560;2024-01-15T14:56:58;96100.72;;;1.99;55.73
45327;BME280;31062;49.678;24.560;2024-01-15T15:00:06;96166.78;;;2.41;55.45
45327;BME280;31062;49.678;24.560;2024-01-15T15:03:12;96166.63;;;2.39;55.65
45327;BME280;31062;49.678;24.560;2024-01-15T15:06:18;96163.16;;;2.39;55.29
45327;BME280;31062;49.678;24.560;2024-01-15T15:09:25;96168.63;;;2.39;55.35
45327;BME280;31062;49.678;24.560;2024-01-15T15:12:30;96168.63;;;2.39;55.47
45327;BME280;31062;49.678;24.560;2024-01-15T15:15:36;96170.81;;;2.40;55.92
45327;BME280;31062;49.678;24.560;2024-01-15T15:18:43;96171.53;;;2.41;55.88
45327;BME280;31062;49.678;24.560;2024-01-15T15:21:49;96172.97;;;2.42;56.57
45327;BME280;31062;49.678;24.560;2024-01-15T15:24:36;96174.28;;;2.41;55.67
45327;BME280;31062;49.678;24.560;2024-01-15T15:27:42;96167.22;;;2.38;55.41
45327;BME280;31062;49.678;24.560;2024-01-15T15:30:49;96161.44;;;2.34;55.74
45327;BME280;31062;49.678;24.560;2024-01-15T15:33:55;96152.47;;;2.24;55.06